Stx Freesia — V7SB5 — position and weather

sailwx.info

Track history (hours):
 
Tides and Currents Weather Stations Pressure Air Temp Water Temp Dewpoint Dewpoint Depression Visibility Wind Speed Wind Dir Waves Ship Positions

Stx Freesia

Last reported at 2014-Oct-19 17:17 UTC. Time now 2014-Nov-26 18:39 UTC.
Position S 31°43' E 153°04'.
Warning: this ship's position is 38 days out of date.

Length 292 m; draft 15.2 m.

Type: Cargo ship. MMSI: 538003616.

Date/timePositionNaut miles runAvg speedWind from/ knotsBaromVisibWave heightAir tempDewpointWater temp
2014-Oct-19 17:17S 31°43' E 153°04'811.7
2014-Oct-19 16:33S 31°51' E 153°00'3411.3
2014-Oct-19 13:33S 32°22' E 152°46'1010.3
2014-Oct-19 12:33S 32°31' E 152°39'1010.0
2014-Oct-19 11:33S 32°38' E 152°30'1010.0
2014-Oct-19 10:33S 32°45' E 152°22'10 9.7
2014-Oct-19 09:33S 32°51' E 152°13'10 9.7
2014-Oct-19 08:33S 32°56' E 152°03'1110.1
2014-Oct-19 07:30S 32°58' E 151°51'6 5.7
2014-Oct-19 06:32S 32°54' E 151°46'2 1.8
2014-Oct-19 05:33S 32°53' E 151°45'0 0.0
2014-Oct-19 04:33S 32°53' E 151°45'0 0.0
2014-Oct-19 03:34S 32°53' E 151°45'0 0.0
2014-Oct-19 02:27S 32°53' E 151°45'0 0.0
2014-Oct-19 01:33S 32°53' E 151°45'0 0.0
2014-Oct-19 00:34S 32°53' E 151°45'0 0.0
2014-Oct-18 21:22S 32°53' E 151°45'0 0.0
2014-Oct-18 20:33S 32°53' E 151°45'0 0.0
2014-Oct-18 19:34S 32°53' E 151°45'0 0.0
2014-Oct-18 18:33S 32°53' E 151°45'0 0.0
2014-Oct-18 17:15S 32°53' E 151°45'0 0.0
2014-Oct-18 16:28S 32°53' E 151°45'0 0.0
2014-Oct-18 15:33S 32°53' E 151°45'0 0.0
2014-Oct-18 14:33S 32°53' E 151°45'0 0.0
2014-Oct-18 13:33S 32°53' E 151°45'0 0.0
2014-Oct-18 12:33S 32°53' E 151°45'0 0.0
2014-Oct-18 11:33S 32°53' E 151°45'0 0.0
2014-Oct-18 09:21S 32°53' E 151°45'0 0.0
2014-Oct-18 08:27S 32°53' E 151°45'0 0.0
2014-Oct-18 07:27S 32°53' E 151°45'0 0.0
2014-Oct-18 06:30S 32°53' E 151°45'0 0.0
2014-Oct-18 05:21S 32°53' E 151°45'0 0.0
2014-Oct-18 04:30S 32°53' E 151°45'0 0.0
2014-Oct-18 03:24S 32°53' E 151°45'0 0.0
2014-Oct-18 02:30S 32°53' E 151°45'0 0.0
2014-Oct-18 01:30S 32°53' E 151°45'0 0.0
2014-Oct-18 00:33S 32°53' E 151°45'0 0.0
2014-Oct-17 23:30S 32°53' E 151°45'0 0.0
2014-Oct-17 22:30S 32°53' E 151°45'0 0.0
2014-Oct-17 21:33S 32°53' E 151°45'0 0.0
2014-Oct-17 20:33S 32°53' E 151°45'1 1.4
2014-Oct-17 19:33S 32°54' E 151°46'6 5.5
2014-Oct-17 18:31S 32°58' E 151°51'7 7.2
2014-Oct-17 17:34S 33°01' E 151°58'1 1.2
2014-Oct-17 16:33S 33°03' E 151°57'1 1.3
2014-Oct-17 15:33S 33°04' E 151°57'1 1.3
2014-Oct-17 14:33S 33°05' E 151°56'0 0.2
2014-Oct-17 13:12S 33°04' E 151°56'1 1.0
2014-Oct-17 12:34S 33°05' E 151°57'3 2.5
2014-Oct-17 11:32S 33°02' E 151°56'1 0.9
2014-Oct-17 10:33S 33°02' E 151°57'1 1.4
2014-Oct-17 09:33S 33°02' E 151°58'4 4.1
2014-Oct-17 08:34S 32°58' E 152°01'2 1.6
2014-Oct-17 07:33S 32°60' E 151°60'2 1.6
2014-Oct-17 06:33S 33°01' E 151°59'3 3.1
2014-Oct-17 05:33S 33°01' E 152°03'1 1.5
2014-Oct-17 04:33S 33°02' E 152°02'2 1.7
2014-Oct-17 03:33S 33°03' E 152°00'2 1.6
2014-Oct-17 02:33S 33°05' E 151°59'2 1.7
2014-Oct-17 01:33S 33°06' E 151°57'2 2.2
2014-Oct-17 00:33S 33°04' E 151°55'1 1.3
2014-Oct-16 23:33S 33°04' E 151°56'2 1.9
2014-Oct-16 22:33S 33°03' E 151°58'5 5.1
2014-Oct-16 21:33S 32°60' E 152°03'2 2.5
2014-Oct-16 20:34S 32°58' E 152°00'1 1.4
2014-Oct-16 19:33S 32°60' E 151°60'1 1.5
2014-Oct-16 18:34S 33°01' E 151°59'1 1.5
2014-Oct-16 17:33S 33°02' E 151°58'2 1.6
2014-Oct-16 16:33S 33°03' E 151°56'2 1.5
2014-Oct-16 15:33S 33°04' E 151°55'1 1.5
2014-Oct-16 14:33S 33°05' E 151°55'2 1.5
2014-Oct-16 13:33S 33°06' E 151°54'2 2.4
2014-Oct-16 12:33S 33°08' E 151°56'1 1.3
2014-Oct-16 11:33S 33°10' E 151°55'1 1.1
2014-Oct-16 10:33S 33°11' E 151°55'1 0.9
2014-Oct-16 09:33S 33°12' E 151°56'1 0.9
2014-Oct-16 08:33S 33°13' E 151°56'0 0.0
2014-Oct-16 07:32S 33°13' E 151°56'1 1.2
2014-Oct-16 06:33S 33°12' E 151°56'3 3.0
2014-Oct-16 05:33S 33°09' E 151°56'1 1.2
2014-Oct-16 04:33S 33°08' E 151°55'2 1.6
2014-Oct-16 03:33S 33°06' E 151°55'4 4.4
2014-Oct-16 02:33S 33°06' E 151°50'8 7.8
2014-Oct-16 01:33S 33°02' E 151°58'2 2.4
2014-Oct-16 00:33S 33°04' E 151°59'3 2.8
2014-Oct-15 23:33S 33°07' E 151°59'0 0.4
2014-Oct-15 22:33S 33°07' E 151°59'9 9.1
2014-Oct-15 21:33S 32°58' E 152°01'1110.6
2014-Oct-15 20:33S 32°52' E 152°11'1111.0
2014-Oct-15 19:33S 32°45' E 152°21'1111.1
2014-Oct-15 18:33S 32°37' E 152°30'1110.8
2014-Oct-15 17:33S 32°30' E 152°39'  
Track history (hours):
 
Tides and Currents Weather Stations Pressure Air Temp Water Temp Dewpoint Dewpoint Depression Visibility Wind Speed Wind Dir Waves Ship Positions

Stx Freesia

Last reported at 2014-Oct-19 17:17 UTC. Time now 2014-Nov-26 18:39 UTC.
Position S 31°43' E 153°04'.
Warning: this ship's position is 38 days out of date.

Length 292 m; draft 15.2 m.

Type: Cargo ship. MMSI: 538003616.

Date/timePositionNaut miles runAvg speedWind from/ knotsBaromVisibWave heightAir tempDewpointWater temp
2014-Oct-19 17:17S 31°43' E 153°04'811.7
2014-Oct-19 16:33S 31°51' E 153°00'3411.3
2014-Oct-19 13:33S 32°22' E 152°46'1010.3
2014-Oct-19 12:33S 32°31' E 152°39'1010.0
2014-Oct-19 11:33S 32°38' E 152°30'1010.0
2014-Oct-19 10:33S 32°45' E 152°22'10 9.7
2014-Oct-19 09:33S 32°51' E 152°13'10 9.7
2014-Oct-19 08:33S 32°56' E 152°03'1110.1
2014-Oct-19 07:30S 32°58' E 151°51'6 5.7
2014-Oct-19 06:32S 32°54' E 151°46'2 1.8
2014-Oct-19 05:33S 32°53' E 151°45'0 0.0
2014-Oct-19 04:33S 32°53' E 151°45'0 0.0
2014-Oct-19 03:34S 32°53' E 151°45'0 0.0
2014-Oct-19 02:27S 32°53' E 151°45'0 0.0
2014-Oct-19 01:33S 32°53' E 151°45'0 0.0
2014-Oct-19 00:34S 32°53' E 151°45'0 0.0
2014-Oct-18 21:22S 32°53' E 151°45'0 0.0
2014-Oct-18 20:33S 32°53' E 151°45'0 0.0
2014-Oct-18 19:34S 32°53' E 151°45'0 0.0
2014-Oct-18 18:33S 32°53' E 151°45'0 0.0
2014-Oct-18 17:15S 32°53' E 151°45'0 0.0
2014-Oct-18 16:28S 32°53' E 151°45'0 0.0
2014-Oct-18 15:33S 32°53' E 151°45'0 0.0
2014-Oct-18 14:33S 32°53' E 151°45'0 0.0
2014-Oct-18 13:33S 32°53' E 151°45'0 0.0
2014-Oct-18 12:33S 32°53' E 151°45'0 0.0
2014-Oct-18 11:33S 32°53' E 151°45'0 0.0
2014-Oct-18 09:21S 32°53' E 151°45'0 0.0
2014-Oct-18 08:27S 32°53' E 151°45'0 0.0
2014-Oct-18 07:27S 32°53' E 151°45'0 0.0
2014-Oct-18 06:30S 32°53' E 151°45'0 0.0
2014-Oct-18 05:21S 32°53' E 151°45'0 0.0
2014-Oct-18 04:30S 32°53' E 151°45'0 0.0
2014-Oct-18 03:24S 32°53' E 151°45'0 0.0
2014-Oct-18 02:30S 32°53' E 151°45'0 0.0
2014-Oct-18 01:30S 32°53' E 151°45'0 0.0
2014-Oct-18 00:33S 32°53' E 151°45'0 0.0
2014-Oct-17 23:30S 32°53' E 151°45'0 0.0
2014-Oct-17 22:30S 32°53' E 151°45'0 0.0
2014-Oct-17 21:33S 32°53' E 151°45'0 0.0
2014-Oct-17 20:33S 32°53' E 151°45'1 1.4
2014-Oct-17 19:33S 32°54' E 151°46'6 5.5
2014-Oct-17 18:31S 32°58' E 151°51'7 7.2
2014-Oct-17 17:34S 33°01' E 151°58'1 1.2
2014-Oct-17 16:33S 33°03' E 151°57'1 1.3
2014-Oct-17 15:33S 33°04' E 151°57'1 1.3
2014-Oct-17 14:33S 33°05' E 151°56'0 0.2
2014-Oct-17 13:12S 33°04' E 151°56'1 1.0
2014-Oct-17 12:34S 33°05' E 151°57'3 2.5
2014-Oct-17 11:32S 33°02' E 151°56'1 0.9
2014-Oct-17 10:33S 33°02' E 151°57'1 1.4
2014-Oct-17 09:33S 33°02' E 151°58'4 4.1
2014-Oct-17 08:34S 32°58' E 152°01'2 1.6
2014-Oct-17 07:33S 32°60' E 151°60'2 1.6
2014-Oct-17 06:33S 33°01' E 151°59'3 3.1
2014-Oct-17 05:33S 33°01' E 152°03'1 1.5
2014-Oct-17 04:33S 33°02' E 152°02'2 1.7
2014-Oct-17 03:33S 33°03' E 152°00'2 1.6
2014-Oct-17 02:33S 33°05' E 151°59'2 1.7
2014-Oct-17 01:33S 33°06' E 151°57'2 2.2
2014-Oct-17 00:33S 33°04' E 151°55'1 1.3
2014-Oct-16 23:33S 33°04' E 151°56'2 1.9
2014-Oct-16 22:33S 33°03' E 151°58'5 5.1
2014-Oct-16 21:33S 32°60' E 152°03'2 2.5
2014-Oct-16 20:34S 32°58' E 152°00'1 1.4
2014-Oct-16 19:33S 32°60' E 151°60'1 1.5
2014-Oct-16 18:34S 33°01' E 151°59'1 1.5
2014-Oct-16 17:33S 33°02' E 151°58'2 1.6
2014-Oct-16 16:33S 33°03' E 151°56'2 1.5
2014-Oct-16 15:33S 33°04' E 151°55'1 1.5
2014-Oct-16 14:33S 33°05' E 151°55'2 1.5
2014-Oct-16 13:33S 33°06' E 151°54'2 2.4
2014-Oct-16 12:33S 33°08' E 151°56'1 1.3
2014-Oct-16 11:33S 33°10' E 151°55'1 1.1
2014-Oct-16 10:33S 33°11' E 151°55'1 0.9
2014-Oct-16 09:33S 33°12' E 151°56'1 0.9
2014-Oct-16 08:33S 33°13' E 151°56'0 0.0
2014-Oct-16 07:32S 33°13' E 151°56'1 1.2
2014-Oct-16 06:33S 33°12' E 151°56'3 3.0
2014-Oct-16 05:33S 33°09' E 151°56'1 1.2
2014-Oct-16 04:33S 33°08' E 151°55'2 1.6
2014-Oct-16 03:33S 33°06' E 151°55'4 4.4
2014-Oct-16 02:33S 33°06' E 151°50'8 7.8
2014-Oct-16 01:33S 33°02' E 151°58'2 2.4
2014-Oct-16 00:33S 33°04' E 151°59'3 2.8
2014-Oct-15 23:33S 33°07' E 151°59'0 0.4
2014-Oct-15 22:33S 33°07' E 151°59'9 9.1
2014-Oct-15 21:33S 32°58' E 152°01'1110.6
2014-Oct-15 20:33S 32°52' E 152°11'1111.0
2014-Oct-15 19:33S 32°45' E 152°21'1111.1
2014-Oct-15 18:33S 32°37' E 152°30'1110.8
2014-Oct-15 17:33S 32°30' E 152°39'  

Dump ship's entire track history